createdAt,value
2022-12-29T00:01:46.770Z,1.20
2022-12-29T00:04:16.269Z,1.40
2022-12-29T00:06:44.709Z,1.00
2022-12-29T00:09:13.419Z,0.87
2022-12-29T00:11:41.701Z,1.00
2022-12-29T00:14:29.339Z,1.03
2022-12-29T00:16:57.100Z,1.00
2022-12-29T00:19:42.925Z,0.97
2022-12-29T00:22:29.768Z,1.30
2022-12-29T00:25:15.080Z,1.00
2022-12-29T00:28:06.383Z,1.00
2022-12-29T00:30:55.858Z,0.83
2022-12-29T00:33:44.684Z,0.90
2022-12-29T00:36:17.090Z,0.70
2022-12-29T00:39:07.797Z,0.80
2022-12-29T00:41:52.818Z,0.90
2022-12-29T00:44:20.503Z,0.80
2022-12-29T00:46:49.668Z,1.00
2022-12-29T00:49:31.428Z,0.90
2022-12-29T00:52:01.983Z,0.90
2022-12-29T00:54:30.544Z,0.80
2022-12-29T00:56:58.577Z,0.80
2022-12-29T00:59:26.320Z,0.70
2022-12-29T01:01:56.827Z,0.70
2022-12-29T01:04:27.373Z,0.70
2022-12-29T01:06:55.440Z,0.70
2022-12-29T01:09:40.367Z,0.73
2022-12-29T01:12:09.553Z,0.77
2022-12-29T01:14:37.422Z,0.70
2022-12-29T01:17:06.947Z,1.10
2022-12-29T01:19:35.128Z,0.80
2022-12-29T01:22:03.040Z,0.70
2022-12-29T01:24:30.678Z,0.60
2022-12-29T01:26:58.340Z,0.90
2022-12-29T01:29:26.081Z,0.70
2022-12-29T01:31:53.805Z,0.63
2022-12-29T01:34:22.799Z,0.73
2022-12-29T01:36:50.470Z,0.60
2022-12-29T01:39:18.380Z,0.80
2022-12-29T01:41:46.042Z,0.70
2022-12-29T01:44:52.987Z,0.80
2022-12-29T01:47:29.966Z,0.67
2022-12-29T01:50:03.255Z,0.60
2022-12-29T01:52:36.529Z,0.77
2022-12-29T01:55:07.160Z,0.70
2022-12-29T01:57:39.233Z,0.80
2022-12-29T02:00:10.595Z,0.90
2022-12-29T02:02:38.966Z,0.93
2022-12-29T02:05:13.624Z,0.80
2022-12-29T02:07:42.909Z,0.70
2022-12-29T02:10:10.693Z,0.70
2022-12-29T02:12:38.543Z,0.70
2022-12-29T02:15:07.543Z,0.60
2022-12-29T02:17:52.450Z,0.70
2022-12-29T02:20:47.609Z,1.00
2022-12-29T02:23:34.758Z,0.90
2022-12-29T02:26:20.751Z,0.60
2022-12-29T02:29:33.012Z,0.60
2022-12-29T02:32:05.865Z,0.80
2022-12-29T02:34:46.178Z,0.70
2022-12-29T02:37:21.788Z,0.80
2022-12-29T02:39:55.825Z,0.70
2022-12-29T02:42:32.890Z,0.93
2022-12-29T02:45:06.876Z,0.90
2022-12-29T02:47:42.335Z,0.73
2022-12-29T02:50:16.922Z,0.80
2022-12-29T02:52:50.409Z,0.90
2022-12-29T02:55:17.157Z,0.80
2022-12-29T02:57:44.951Z,0.60
2022-12-29T03:00:15.816Z,0.80
2022-12-29T03:03:07.559Z,0.80
2022-12-29T03:05:52.438Z,0.60
2022-12-29T03:08:30.212Z,0.70
2022-12-29T03:11:03.849Z,0.60
2022-12-29T03:13:55.645Z,0.80
2022-12-29T03:16:26.728Z,0.83
2022-12-29T03:19:02.382Z,0.87
2022-12-29T03:21:53.823Z,1.00
2022-12-29T03:24:26.213Z,1.00
2022-12-29T03:26:57.136Z,1.30
2022-12-29T03:29:26.179Z,1.10
2022-12-29T03:31:55.794Z,1.00
2022-12-29T03:34:27.584Z,0.80
2022-12-29T03:37:00.774Z,0.70
2022-12-29T03:39:29.722Z,0.70
2022-12-29T03:42:01.979Z,0.70
2022-12-29T03:44:35.171Z,0.70
2022-12-29T03:47:03.023Z,0.70
2022-12-29T03:49:32.139Z,0.70
2022-12-29T03:51:59.902Z,0.70
2022-12-29T03:54:27.598Z,0.80
2022-12-29T03:56:55.277Z,0.80
2022-12-29T03:59:23.274Z,0.77
2022-12-29T04:01:51.065Z,0.83
2022-12-29T04:04:18.991Z,0.60
2022-12-29T04:06:47.988Z,0.80
2022-12-29T04:09:15.853Z,1.00
2022-12-29T04:11:45.300Z,0.90
2022-12-29T04:14:12.910Z,0.83
2022-12-29T04:16:40.638Z,0.70
2022-12-29T04:19:09.243Z,0.67
2022-12-29T04:21:36.965Z,0.77
2022-12-29T04:24:07.516Z,0.70
2022-12-29T04:26:35.284Z,0.60
2022-12-29T04:29:02.929Z,0.80
2022-12-29T04:31:30.738Z,0.60
2022-12-29T04:33:58.873Z,0.77
2022-12-29T04:36:29.840Z,0.90
2022-12-29T04:38:58.046Z,0.80
2022-12-29T04:41:27.474Z,0.70
2022-12-29T04:43:55.129Z,0.73
2022-12-29T04:46:22.820Z,0.80
2022-12-29T04:48:50.530Z,0.70
2022-12-29T04:51:18.243Z,0.70
2022-12-29T04:53:46.214Z,0.70
2022-12-29T04:56:13.874Z,0.60
2022-12-29T04:58:42.956Z,0.87
2022-12-29T05:01:10.616Z,0.70
2022-12-29T05:03:38.341Z,0.63
2022-12-29T05:06:06.328Z,0.70
2022-12-29T05:08:34.031Z,0.57
2022-12-29T05:11:01.740Z,0.77
2022-12-29T05:13:29.424Z,0.80
2022-12-29T05:15:58.594Z,0.70
2022-12-29T05:18:26.372Z,0.70
2022-12-29T05:20:54.040Z,0.80
2022-12-29T05:23:21.868Z,0.77
2022-12-29T05:25:49.547Z,0.80
2022-12-29T05:28:17.233Z,0.80
2022-12-29T05:30:46.313Z,0.70
2022-12-29T05:33:15.313Z,0.80
2022-12-29T05:35:42.976Z,0.73
2022-12-29T05:38:10.643Z,0.80
2022-12-29T05:40:38.320Z,0.77
2022-12-29T05:43:06.052Z,0.70
2022-12-29T05:45:33.749Z,0.70
2022-12-29T05:48:01.437Z,0.80
2022-12-29T05:50:30.920Z,0.80
2022-12-29T05:52:58.640Z,1.27
2022-12-29T05:55:26.354Z,0.90
2022-12-29T05:57:54.045Z,1.27
2022-12-29T06:00:21.730Z,1.10
2022-12-29T06:02:49.610Z,1.40
2022-12-29T06:05:17.466Z,1.17
2022-12-29T06:07:46.739Z,0.90
2022-12-29T06:10:14.774Z,1.30
2022-12-29T06:12:42.495Z,1.67
2022-12-29T06:15:10.912Z,2.13
2022-12-29T06:17:38.669Z,1.00
2022-12-29T06:20:07.335Z,1.40
2022-12-29T06:22:35.348Z,1.10
2022-12-29T06:25:05.387Z,0.80
2022-12-29T06:27:33.796Z,0.90
2022-12-29T06:30:01.824Z,1.00
2022-12-29T06:32:29.861Z,1.10
2022-12-29T06:34:57.516Z,1.17
2022-12-29T06:37:25.201Z,0.70
2022-12-29T06:39:52.835Z,0.90
2022-12-29T06:42:21.873Z,1.00
2022-12-29T06:44:49.629Z,0.63
2022-12-29T06:47:17.546Z,0.70
2022-12-29T06:49:45.232Z,0.60
2022-12-29T06:52:14.015Z,0.70
2022-12-29T06:54:41.851Z,0.70
2022-12-29T06:57:09.719Z,0.73
2022-12-29T06:59:38.719Z,0.70
2022-12-29T07:02:06.567Z,0.80
2022-12-29T07:04:34.517Z,0.70
2022-12-29T07:07:02.248Z,0.77
2022-12-29T07:09:29.996Z,0.80
2022-12-29T07:11:58.214Z,0.80
2022-12-29T07:14:25.900Z,0.70
2022-12-29T07:16:55.412Z,0.60
2022-12-29T07:19:23.206Z,0.80
2022-12-29T07:21:50.856Z,0.70
2022-12-29T07:24:18.641Z,0.67
2022-12-29T07:26:46.309Z,0.77
2022-12-29T07:29:13.993Z,0.60
2022-12-29T07:31:41.785Z,0.67
2022-12-29T07:34:11.651Z,0.70
2022-12-29T07:36:39.301Z,0.73
2022-12-29T07:39:07.123Z,0.73
2022-12-29T07:41:35.593Z,0.80
2022-12-29T07:44:03.404Z,0.63
2022-12-29T07:46:54.266Z,1.00
2022-12-29T07:49:20.956Z,1.00
2022-12-29T07:51:48.659Z,0.73
2022-12-29T07:54:19.075Z,0.90
2022-12-29T07:56:46.842Z,0.83
2022-12-29T07:59:14.532Z,0.70
2022-12-29T08:01:42.470Z,1.03
2022-12-29T08:04:10.506Z,0.77
2022-12-29T08:06:39.560Z,0.70
2022-12-29T08:09:13.661Z,0.70
2022-12-29T08:11:45.005Z,0.80
2022-12-29T08:14:12.792Z,0.70
2022-12-29T08:16:40.490Z,0.80
2022-12-29T08:19:08.177Z,0.83
2022-12-29T08:21:36.044Z,1.03
2022-12-29T08:24:05.579Z,1.10
2022-12-29T08:26:33.213Z,0.73
2022-12-29T08:29:00.872Z,0.80
2022-12-29T08:31:28.566Z,1.20
2022-12-29T08:33:56.312Z,0.90
2022-12-29T08:36:23.978Z,0.80
2022-12-29T08:38:51.596Z,0.80
2022-12-29T08:41:20.664Z,0.73
2022-12-29T08:43:48.782Z,0.80
2022-12-29T08:46:16.584Z,0.70
2022-12-29T08:48:44.537Z,0.60
2022-12-29T08:51:12.165Z,0.73
2022-12-29T08:53:39.858Z,0.93
2022-12-29T08:56:08.389Z,0.60
2022-12-29T08:58:37.873Z,0.70
2022-12-29T09:01:06.104Z,0.80
2022-12-29T09:06:21.376Z,0.67
2022-12-29T09:08:49.051Z,0.80
2022-12-29T09:11:19.076Z,0.80
2022-12-29T09:13:48.744Z,0.70
2022-12-29T09:16:17.716Z,0.80
2022-12-29T09:18:45.881Z,0.90
2022-12-29T09:21:14.448Z,1.07
2022-12-29T09:23:42.551Z,0.80
2022-12-29T09:26:10.821Z,0.67
2022-12-29T09:28:38.494Z,0.67
2022-12-29T09:31:08.279Z,0.87
2022-12-29T09:33:36.274Z,0.80
2022-12-29T09:36:04.916Z,0.87
2022-12-29T09:38:32.592Z,0.70
2022-12-29T09:41:08.052Z,1.10
2022-12-29T09:43:57.053Z,0.77
2022-12-29T09:46:28.784Z,0.90
2022-12-29T09:49:10.492Z,1.10
2022-12-29T09:51:42.256Z,0.70
2022-12-29T09:54:25.077Z,0.80
2022-12-29T09:56:54.341Z,0.90
2022-12-29T09:59:26.341Z,0.80
2022-12-29T10:02:00.531Z,0.80
2022-12-29T10:04:29.013Z,0.90
2022-12-29T10:09:55.649Z,0.70
2022-12-29T10:12:33.251Z,0.90
2022-12-29T10:15:07.489Z,0.70
2022-12-29T10:17:47.104Z,0.80
2022-12-29T10:20:27.385Z,0.67
2022-12-29T10:23:27.025Z,0.60
2022-12-29T10:25:57.344Z,0.80
2022-12-29T10:28:33.699Z,0.77
2022-12-29T10:31:08.680Z,0.70
2022-12-29T10:33:41.754Z,1.10
2022-12-29T10:36:17.528Z,0.87
2022-12-29T10:38:54.334Z,0.67
2022-12-29T10:41:27.458Z,0.77
2022-12-29T10:43:59.128Z,1.03
2022-12-29T10:46:31.436Z,1.10
2022-12-29T10:49:00.909Z,0.70
2022-12-29T10:51:32.296Z,0.70
2022-12-29T10:54:04.833Z,0.70
2022-12-29T10:56:38.195Z,0.70
2022-12-29T10:59:15.144Z,0.80
2022-12-29T11:01:53.877Z,0.70
2022-12-29T11:04:39.004Z,0.80
2022-12-29T11:07:10.592Z,0.90
2022-12-29T11:09:43.511Z,0.80
2022-12-29T11:12:21.772Z,1.07
2022-12-29T11:14:49.491Z,0.70
2022-12-29T11:17:19.219Z,0.80
2022-12-29T11:19:48.269Z,1.10
2022-12-29T11:22:23.029Z,0.80
2022-12-29T11:24:54.305Z,0.73
2022-12-29T11:27:24.381Z,0.70
2022-12-29T11:29:53.550Z,0.70
2022-12-29T11:32:28.413Z,0.60
2022-12-29T11:34:59.660Z,0.70
2022-12-29T11:37:31.030Z,0.60
2022-12-29T11:40:02.252Z,0.70
2022-12-29T11:42:37.169Z,0.70
2022-12-29T11:45:11.071Z,0.67
2022-12-29T11:47:39.133Z,0.60
2022-12-29T11:50:10.188Z,0.97
2022-12-29T11:52:40.520Z,0.73
2022-12-29T11:55:18.632Z,0.70
2022-12-29T11:57:47.443Z,0.70
2022-12-29T12:00:20.815Z,0.60
2022-12-29T12:02:55.518Z,0.70
2022-12-29T12:05:35.580Z,0.83
2022-12-29T12:08:14.910Z,0.80
2022-12-29T12:10:50.311Z,0.87
2022-12-29T12:13:23.872Z,0.63
2022-12-29T12:15:57.474Z,0.70
2022-12-29T12:18:36.558Z,0.93
2022-12-29T12:21:15.019Z,0.70
2022-12-29T12:23:55.369Z,0.93
2022-12-29T12:26:30.572Z,0.73
2022-12-29T12:29:03.065Z,0.70
2022-12-29T12:31:46.803Z,0.93
2022-12-29T12:34:21.151Z,0.97
2022-12-29T12:37:04.677Z,0.90
2022-12-29T12:39:46.086Z,0.70
2022-12-29T12:42:30.622Z,0.70
2022-12-29T12:45:12.899Z,0.80
2022-12-29T12:47:56.196Z,0.70
2022-12-29T12:50:37.463Z,0.80
2022-12-29T12:53:30.199Z,0.80
2022-12-29T12:56:10.362Z,0.60
2022-12-29T12:58:46.656Z,0.60
2022-12-29T13:01:27.476Z,0.77
2022-12-29T13:04:09.032Z,0.70
2022-12-29T13:06:49.653Z,0.70
2022-12-29T13:09:36.101Z,0.80
2022-12-29T13:12:19.259Z,0.80
2022-12-29T13:14:54.555Z,0.87
2022-12-29T13:17:32.017Z,0.70
2022-12-29T13:20:11.044Z,0.70
2022-12-29T13:22:44.611Z,0.90
2022-12-29T13:25:29.514Z,1.07
2022-12-29T13:28:02.806Z,0.63
2022-12-29T13:30:36.652Z,0.93
2022-12-29T13:33:21.313Z,0.90
2022-12-29T13:35:59.033Z,1.10
2022-12-29T13:38:31.841Z,1.00
2022-12-29T13:41:05.242Z,1.13
2022-12-29T13:43:36.177Z,0.63
2022-12-29T13:46:10.061Z,0.87
2022-12-29T13:48:43.477Z,0.90
2022-12-29T13:51:13.134Z,0.97
2022-12-29T13:53:57.214Z,0.97
2022-12-29T13:56:32.906Z,0.90
2022-12-29T13:59:06.786Z,0.80
2022-12-29T14:01:39.828Z,0.90
2022-12-29T14:04:13.892Z,1.10
2022-12-29T14:06:43.298Z,1.00
2022-12-29T14:09:42.163Z,0.90
2022-12-29T14:12:29.765Z,1.10
2022-12-29T14:15:05.653Z,1.00
2022-12-29T14:17:33.456Z,1.20
2022-12-29T14:20:01.189Z,1.00
2022-12-29T14:22:33.234Z,1.17
2022-12-29T14:25:01.955Z,1.03
2022-12-29T14:27:54.925Z,1.07
2022-12-29T14:30:51.604Z,0.70
2022-12-29T14:33:19.904Z,0.70
2022-12-29T14:35:50.744Z,0.87
2022-12-29T14:38:24.602Z,0.70
2022-12-29T14:40:53.521Z,0.90
2022-12-29T14:43:27.412Z,1.13
2022-12-29T14:46:02.279Z,0.90
2022-12-29T14:48:38.288Z,0.97
2022-12-29T14:51:21.125Z,0.80
2022-12-29T14:53:51.160Z,0.90
2022-12-29T14:56:21.165Z,0.80
2022-12-29T14:58:54.571Z,0.87
2022-12-29T15:01:28.340Z,0.87
2022-12-29T15:04:02.106Z,1.10
2022-12-29T15:06:34.043Z,0.80
2022-12-29T15:09:07.096Z,1.20
2022-12-29T15:11:49.805Z,0.80
2022-12-29T15:14:51.161Z,1.37
2022-12-29T15:17:27.028Z,0.90
2022-12-29T15:19:59.829Z,1.00
2022-12-29T15:22:28.354Z,0.90
2022-12-29T15:24:57.585Z,1.00
2022-12-29T15:27:26.988Z,1.00
2022-12-29T15:30:00.205Z,1.17
2022-12-29T15:32:29.761Z,0.93
2022-12-29T15:35:00.826Z,1.40
2022-12-29T15:37:34.440Z,1.17
2022-12-29T15:40:02.226Z,1.30
2022-12-29T15:42:49.942Z,1.20
2022-12-29T15:45:19.171Z,1.90
2022-12-29T15:47:50.318Z,1.50
2022-12-29T15:50:25.946Z,2.57
2022-12-29T15:52:53.693Z,2.97
2022-12-29T15:55:27.041Z,2.90
2022-12-29T15:57:58.922Z,2.10
2022-12-29T16:00:31.543Z,1.73
2022-12-29T16:03:02.084Z,2.57
2022-12-29T16:05:34.462Z,1.73
2022-12-29T16:08:02.338Z,1.90
2022-12-29T16:10:37.464Z,2.00
2022-12-29T16:13:07.801Z,2.47
2022-12-29T16:15:36.874Z,2.17
2022-12-29T16:18:04.762Z,2.73
2022-12-29T16:20:41.206Z,1.70
2022-12-29T16:23:22.271Z,2.33
2022-12-29T16:25:50.103Z,2.03
2022-12-29T16:28:22.081Z,1.47
2022-12-29T16:31:00.102Z,1.70
2022-12-29T16:33:38.709Z,1.40
2022-12-29T16:36:31.466Z,1.70
2022-12-29T16:39:22.654Z,1.40
2022-12-29T16:41:51.278Z,1.40
2022-12-29T16:44:21.241Z,1.30
2022-12-29T16:47:20.231Z,1.30
2022-12-29T16:49:52.934Z,1.27
2022-12-29T16:52:23.317Z,1.30
2022-12-29T16:54:55.168Z,1.43
2022-12-29T16:57:26.833Z,1.07
2022-12-29T16:59:57.723Z,1.20
2022-12-29T17:02:29.394Z,1.17
2022-12-29T17:04:57.288Z,1.30
2022-12-29T17:07:27.500Z,2.03
2022-12-29T17:09:55.513Z,1.57
2022-12-29T17:12:27.459Z,1.97
2022-12-29T17:14:57.331Z,1.90
2022-12-29T17:17:34.034Z,1.87
2022-12-29T17:20:05.384Z,1.83
2022-12-29T17:22:33.848Z,2.73
2022-12-29T17:25:03.771Z,2.37
2022-12-29T17:27:35.509Z,1.77
2022-12-29T17:30:07.217Z,3.17
2022-12-29T17:32:36.331Z,3.17
2022-12-29T17:35:04.159Z,3.67
2022-12-29T17:37:37.066Z,3.00
2022-12-29T17:40:07.279Z,3.63
2022-12-29T17:42:39.355Z,1.97
2022-12-29T17:45:07.909Z,1.80
2022-12-29T17:47:36.953Z,1.60
2022-12-29T17:50:05.515Z,1.50
2022-12-29T17:52:34.015Z,1.67
2022-12-29T17:55:01.663Z,1.70
2022-12-29T17:57:29.306Z,1.23
2022-12-29T17:59:57.007Z,1.40
2022-12-29T18:02:29.134Z,2.70
2022-12-29T18:04:59.497Z,2.10
2022-12-29T18:07:34.074Z,2.50
2022-12-29T18:10:04.646Z,1.90
2022-12-29T18:12:39.129Z,3.27
2022-12-29T18:15:08.557Z,1.93
2022-12-29T18:17:36.177Z,2.20
2022-12-29T18:20:05.783Z,1.80
2022-12-29T18:22:33.571Z,2.10
2022-12-29T18:25:02.058Z,3.23
2022-12-29T18:27:30.155Z,3.00
2022-12-29T18:29:57.787Z,3.27
2022-12-29T18:32:25.493Z,2.77
2022-12-29T18:34:53.176Z,2.30
2022-12-29T18:37:22.232Z,3.67
2022-12-29T18:39:49.861Z,3.33
2022-12-29T18:42:18.535Z,2.90
2022-12-29T18:44:46.225Z,3.93
2022-12-29T18:47:14.096Z,3.30
2022-12-29T18:49:41.944Z,3.00
2022-12-29T18:52:13.702Z,2.97
2022-12-29T18:54:42.869Z,2.40
2022-12-29T18:57:10.826Z,2.90
2022-12-29T18:59:40.234Z,3.17
2022-12-29T19:02:08.551Z,2.97
2022-12-29T19:04:36.526Z,2.50
2022-12-29T19:07:04.336Z,2.60
2022-12-29T19:09:32.063Z,2.87
2022-12-29T19:12:01.138Z,2.97
2022-12-29T19:14:29.472Z,3.10
2022-12-29T19:16:57.248Z,2.40
2022-12-29T19:19:24.988Z,2.37
2022-12-29T19:21:56.525Z,2.43
2022-12-29T19:24:24.387Z,2.30
2022-12-29T19:26:52.128Z,2.13
2022-12-29T19:29:21.260Z,2.00
2022-12-29T19:31:49.074Z,3.07
2022-12-29T19:34:18.264Z,2.10
2022-12-29T19:36:46.791Z,2.30
2022-12-29T19:39:14.593Z,2.10
2022-12-29T19:41:42.322Z,2.53
2022-12-29T19:44:10.125Z,5.10
2022-12-29T19:46:39.330Z,3.70
2022-12-29T19:49:07.187Z,3.00
2022-12-29T19:51:34.957Z,3.73
2022-12-29T19:54:02.796Z,2.77
2022-12-29T19:56:30.681Z,3.53
2022-12-29T19:58:58.662Z,4.43
2022-12-29T20:01:27.406Z,3.70
2022-12-29T20:03:57.800Z,3.43
2022-12-29T20:06:25.644Z,2.53
2022-12-29T20:08:53.459Z,2.63
2022-12-29T20:11:21.280Z,2.40
2022-12-29T20:13:49.346Z,1.97
2022-12-29T20:16:19.381Z,1.87
2022-12-29T20:18:48.082Z,2.20
2022-12-29T20:21:19.362Z,1.77
2022-12-29T20:23:48.213Z,2.07
2022-12-29T20:26:17.432Z,1.57
2022-12-29T20:28:46.311Z,1.60
2022-12-29T20:31:19.168Z,1.37
2022-12-29T20:33:47.336Z,1.40
2022-12-29T20:36:19.002Z,1.40
2022-12-29T20:38:48.024Z,1.30
2022-12-29T20:41:15.818Z,2.00
2022-12-29T20:43:43.712Z,1.60
2022-12-29T20:46:18.138Z,1.27
2022-12-29T20:48:48.754Z,2.03
2022-12-29T20:51:22.103Z,1.50
2022-12-29T20:53:50.496Z,1.90
2022-12-29T20:56:22.107Z,1.20
2022-12-29T20:59:25.706Z,1.20
2022-12-29T21:01:41.237Z,1.60
2022-12-29T21:04:09.687Z,1.97
2022-12-29T21:06:40.232Z,1.30
2022-12-29T21:09:08.321Z,1.50
2022-12-29T21:11:37.591Z,1.00
2022-12-29T21:14:05.672Z,1.40
2022-12-29T21:16:33.754Z,1.10
2022-12-29T21:19:01.741Z,1.30
2022-12-29T21:21:30.943Z,1.57
2022-12-29T21:24:05.463Z,1.77
2022-12-29T21:26:34.976Z,1.47
2022-12-29T21:29:04.310Z,0.90
2022-12-29T21:31:35.449Z,1.10
2022-12-29T21:34:04.763Z,1.10
2022-12-29T21:36:33.312Z,0.90
2022-12-29T21:39:04.602Z,1.00
2022-12-29T21:41:33.634Z,1.10
2022-12-29T21:44:19.557Z,1.00
2022-12-29T21:46:48.810Z,0.90
2022-12-29T21:49:17.155Z,1.00
2022-12-29T21:51:54.872Z,1.03
2022-12-29T21:54:43.769Z,0.90
2022-12-29T21:57:17.918Z,0.90
2022-12-29T22:00:06.455Z,0.77
2022-12-29T22:02:52.168Z,0.73
2022-12-29T22:05:38.287Z,0.90
2022-12-29T22:08:23.812Z,0.80
2022-12-29T22:11:10.510Z,0.80
2022-12-29T22:13:39.921Z,0.80
2022-12-29T22:16:10.398Z,0.77
2022-12-29T22:18:39.034Z,0.80
2022-12-29T22:21:08.412Z,0.80
2022-12-29T22:23:38.087Z,0.70
2022-12-29T22:26:09.240Z,0.70
2022-12-29T22:28:38.272Z,0.63
2022-12-29T22:31:06.545Z,0.50
2022-12-29T22:33:34.692Z,0.70
2022-12-29T22:36:02.414Z,0.60
2022-12-29T22:38:30.122Z,0.60
2022-12-29T22:41:00.315Z,0.70
2022-12-29T22:43:30.511Z,0.80
2022-12-29T22:46:03.235Z,0.60
2022-12-29T22:48:32.940Z,0.50
2022-12-29T22:51:00.734Z,0.53
2022-12-29T22:53:28.768Z,0.50
2022-12-29T22:56:03.521Z,0.67
2022-12-29T22:58:32.643Z,0.43
2022-12-29T23:01:00.441Z,0.60
2022-12-29T23:03:31.392Z,0.57
2022-12-29T23:06:00.797Z,0.53
2022-12-29T23:08:29.640Z,0.53
2022-12-29T23:10:57.571Z,0.60
2022-12-29T23:13:25.398Z,0.60
2022-12-29T23:15:54.701Z,0.60
2022-12-29T23:18:22.577Z,0.67
2022-12-29T23:20:50.786Z,0.50
2022-12-29T23:23:48.468Z,0.40
2022-12-29T23:26:17.284Z,0.40
2022-12-29T23:28:45.047Z,0.40
2022-12-29T23:31:14.576Z,0.60
2022-12-29T23:33:42.939Z,0.60
2022-12-29T23:36:11.178Z,0.57
2022-12-29T23:38:39.072Z,0.60
2022-12-29T23:41:07.104Z,0.70
2022-12-29T23:43:34.812Z,0.47
2022-12-29T23:46:07.140Z,0.60
2022-12-29T23:48:36.229Z,0.60
2022-12-29T23:51:05.412Z,0.60
2022-12-29T23:53:33.180Z,0.53
2022-12-29T23:56:01.115Z,1.00
2022-12-29T23:58:30.258Z,0.60
